sensor_id;sensor_type;location;lat;lon;timestamp;temperature;humidity
3406;DHT22;10008;48.682;9.016;2023-11-22T00:02:17;7.30;99.90
3406;DHT22;10008;48.682;9.016;2023-11-22T00:04:43;7.30;99.90
3406;DHT22;10008;48.682;9.016;2023-11-22T00:07:09;7.30;99.90
3406;DHT22;10008;48.682;9.016;2023-11-22T00:09:35;7.40;99.90
3406;DHT22;10008;48.682;9.016;2023-11-22T00:12:01;7.40;99.90
3406;DHT22;10008;48.682;9.016;2023-11-22T00:14:26;7.30;99.90
3406;DHT22;10008;48.682;9.016;2023-11-22T00:16:52;7.30;99.90
3406;DHT22;10008;48.682;9.016;2023-11-22T00:19:19;7.40;99.90
3406;DHT22;10008;48.682;9.016;2023-11-22T00:21:48;7.50;99.90
3406;DHT22;10008;48.682;9.016;2023-11-22T00:24:13;7.50;99.90
3406;DHT22;10008;48.682;9.016;2023-11-22T00:26:39;7.40;99.90
3406;DHT22;10008;48.682;9.016;2023-11-22T00:29:05;7.30;99.90
3406;DHT22;10008;48.682;9.016;2023-11-22T00:31:31;7.10;99.90
3406;DHT22;10008;48.682;9.016;2023-11-22T00:33:56;7.00;99.90
3406;DHT22;10008;48.682;9.016;2023-11-22T00:36:22;6.90;99.90
3406;DHT22;10008;48.682;9.016;2023-11-22T00:38:48;6.60;99.90
3406;DHT22;10008;48.682;9.016;2023-11-22T00:41:13;6.50;99.90
3406;DHT22;10008;48.682;9.016;2023-11-22T00:43:42;6.20;99.90
3406;DHT22;10008;48.682;9.016;2023-11-22T00:46:08;6.10;99.90
3406;DHT22;10008;48.682;9.016;2023-11-22T00:48:34;6.40;99.90
3406;DHT22;10008;48.682;9.016;2023-11-22T00:50:59;5.90;99.90
3406;DHT22;10008;48.682;9.016;2023-11-22T00:53:25;5.90;99.90
3406;DHT22;10008;48.682;9.016;2023-11-22T00:55:51;5.80;99.90
3406;DHT22;10008;48.682;9.016;2023-11-22T00:58:16;6.00;99.90
3406;DHT22;10008;48.682;9.016;2023-11-22T01:00:42;5.40;99.90
3406;DHT22;10008;48.682;9.016;2023-11-22T01:03:08;5.40;99.90
3406;DHT22;10008;48.682;9.016;2023-11-22T01:05:37;5.40;99.90
3406;DHT22;10008;48.682;9.016;2023-11-22T01:08:03;5.40;99.90
3406;DHT22;10008;48.682;9.016;2023-11-22T01:10:29;5.30;99.90
3406;DHT22;10008;48.682;9.016;2023-11-22T01:12:55;5.10;99.90
3406;DHT22;10008;48.682;9.016;2023-11-22T01:15:22;5.10;99.90
3406;DHT22;10008;48.682;9.016;2023-11-22T01:17:48;5.10;99.90
3406;DHT22;10008;48.682;9.016;2023-11-22T01:20:14;5.00;99.90
3406;DHT22;10008;48.682;9.016;2023-11-22T01:22:41;4.90;99.90
3406;DHT22;10008;48.682;9.016;2023-11-22T01:25:08;4.90;99.90
3406;DHT22;10008;48.682;9.016;2023-11-22T01:27:33;4.80;99.90
3406;DHT22;10008;48.682;9.016;2023-11-22T01:29:59;4.80;99.90
3406;DHT22;10008;48.682;9.016;2023-11-22T01:32:25;4.80;99.90
3406;DHT22;10008;48.682;9.016;2023-11-22T01:34:50;4.70;99.90
3406;DHT22;10008;48.682;9.016;2023-11-22T01:37:16;4.60;99.90
3406;DHT22;10008;48.682;9.016;2023-11-22T01:39:42;4.60;99.90
3406;DHT22;10008;48.682;9.016;2023-11-22T01:42:08;4.60;99.90
3406;DHT22;10008;48.682;9.016;2023-11-22T01:44:35;4.60;99.90
3406;DHT22;10008;48.682;9.016;2023-11-22T01:47:01;4.60;99.90
3406;DHT22;10008;48.682;9.016;2023-11-22T01:49:29;4.50;99.90
3406;DHT22;10008;48.682;9.016;2023-11-22T01:51:55;4.50;99.90
3406;DHT22;10008;48.682;9.016;2023-11-22T01:54:22;4.50;99.90
3406;DHT22;10008;48.682;9.016;2023-11-22T01:56:49;4.70;99.90
3406;DHT22;10008;48.682;9.016;2023-11-22T01:59:15;4.50;99.90
3406;DHT22;10008;48.682;9.016;2023-11-22T02:01:43;4.40;99.90
3406;DHT22;10008;48.682;9.016;2023-11-22T02:04:08;3.90;99.90
3406;DHT22;10008;48.682;9.016;2023-11-22T02:06:35;4.20;99.90
3406;DHT22;10008;48.682;9.016;2023-11-22T02:09:01;4.20;99.90
3406;DHT22;10008;48.682;9.016;2023-11-22T02:11:27;4.20;99.90
3406;DHT22;10008;48.682;9.016;2023-11-22T02:13:52;4.20;99.90
3406;DHT22;10008;48.682;9.016;2023-11-22T02:16:19;4.70;99.90
3406;DHT22;10008;48.682;9.016;2023-11-22T02:18:48;4.50;99.90
3406;DHT22;10008;48.682;9.016;2023-11-22T02:21:18;3.90;99.90
3406;DHT22;10008;48.682;9.016;2023-11-22T02:23:44;3.90;99.90
3406;DHT22;10008;48.682;9.016;2023-11-22T02:26:09;3.80;99.90
3406;DHT22;10008;48.682;9.016;2023-11-22T02:28:35;3.80;99.90
3406;DHT22;10008;48.682;9.016;2023-11-22T02:31:01;3.90;99.90
3406;DHT22;10008;48.682;9.016;2023-11-22T02:33:28;3.90;99.90
3406;DHT22;10008;48.682;9.016;2023-11-22T02:35:54;4.50;99.90
3406;DHT22;10008;48.682;9.016;2023-11-22T02:38:20;3.90;99.90
3406;DHT22;10008;48.682;9.016;2023-11-22T02:40:46;3.80;99.90
3406;DHT22;10008;48.682;9.016;2023-11-22T02:43:12;3.90;99.90
3406;DHT22;10008;48.682;9.016;2023-11-22T02:45:38;3.90;99.90
3406;DHT22;10008;48.682;9.016;2023-11-22T02:48:04;3.70;99.90
3406;DHT22;10008;48.682;9.016;2023-11-22T02:50:35;3.60;99.90
3406;DHT22;10008;48.682;9.016;2023-11-22T02:53:03;3.90;99.90
3406;DHT22;10008;48.682;9.016;2023-11-22T02:55:29;3.60;99.90
3406;DHT22;10008;48.682;9.016;2023-11-22T02:57:55;3.50;99.90
3406;DHT22;10008;48.682;9.016;2023-11-22T03:00:21;3.50;99.90
3406;DHT22;10008;48.682;9.016;2023-11-22T03:02:47;3.10;99.90
3406;DHT22;10008;48.682;9.016;2023-11-22T03:05:13;3.50;99.90
3406;DHT22;10008;48.682;9.016;2023-11-22T03:07:41;3.40;99.90
3406;DHT22;10008;48.682;9.016;2023-11-22T03:10:07;3.30;99.90
3406;DHT22;10008;48.682;9.016;2023-11-22T03:12:34;3.30;99.90
3406;DHT22;10008;48.682;9.016;2023-11-22T03:15:00;3.30;99.90
3406;DHT22;10008;48.682;9.016;2023-11-22T03:17:28;3.30;99.90
3406;DHT22;10008;48.682;9.016;2023-11-22T03:19:57;3.40;99.90
3406;DHT22;10008;48.682;9.016;2023-11-22T03:22:27;3.30;99.90
3406;DHT22;10008;48.682;9.016;2023-11-22T03:24:55;3.30;99.90
3406;DHT22;10008;48.682;9.016;2023-11-22T03:27:21;3.30;99.90
3406;DHT22;10008;48.682;9.016;2023-11-22T03:29:48;3.30;99.90
3406;DHT22;10008;48.682;9.016;2023-11-22T03:32:15;3.60;99.90
3406;DHT22;10008;48.682;9.016;2023-11-22T03:34:40;3.30;99.90
3406;DHT22;10008;48.682;9.016;2023-11-22T03:37:06;3.30;99.90
3406;DHT22;10008;48.682;9.016;2023-11-22T03:39:32;4.00;99.90
3406;DHT22;10008;48.682;9.016;2023-11-22T03:41:59;3.10;99.90
3406;DHT22;10008;48.682;9.016;2023-11-22T03:44:25;3.20;99.90
3406;DHT22;10008;48.682;9.016;2023-11-22T03:46:51;3.20;99.90
3406;DHT22;10008;48.682;9.016;2023-11-22T03:49:17;3.20;99.90
3406;DHT22;10008;48.682;9.016;2023-11-22T03:51:43;3.10;99.90
3406;DHT22;10008;48.682;9.016;2023-11-22T03:54:09;3.10;99.90
3406;DHT22;10008;48.682;9.016;2023-11-22T03:56:36;3.50;99.90
3406;DHT22;10008;48.682;9.016;2023-11-22T03:59:02;3.10;99.90
3406;DHT22;10008;48.682;9.016;2023-11-22T04:01:29;3.00;99.90
3406;DHT22;10008;48.682;9.016;2023-11-22T04:03:55;3.00;99.90
3406;DHT22;10008;48.682;9.016;2023-11-22T04:06:21;3.70;99.90
3406;DHT22;10008;48.682;9.016;2023-11-22T04:08:48;3.00;99.90
3406;DHT22;10008;48.682;9.016;2023-11-22T04:11:15;3.00;99.90
3406;DHT22;10008;48.682;9.016;2023-11-22T04:13:42;3.40;99.90
3406;DHT22;10008;48.682;9.016;2023-11-22T04:16:07;3.20;99.90
3406;DHT22;10008;48.682;9.016;2023-11-22T04:18:35;3.20;99.90
3406;DHT22;10008;48.682;9.016;2023-11-22T04:21:04;3.10;99.90
3406;DHT22;10008;48.682;9.016;2023-11-22T04:23:33;3.10;99.90
3406;DHT22;10008;48.682;9.016;2023-11-22T04:25:59;3.10;99.90
3406;DHT22;10008;48.682;9.016;2023-11-22T04:28:26;3.20;99.90
3406;DHT22;10008;48.682;9.016;2023-11-22T04:30:52;3.20;99.90
3406;DHT22;10008;48.682;9.016;2023-11-22T04:33:19;3.20;99.90
3406;DHT22;10008;48.682;9.016;2023-11-22T04:35:46;3.20;99.90
3406;DHT22;10008;48.682;9.016;2023-11-22T04:38:11;3.30;99.90
3406;DHT22;10008;48.682;9.016;2023-11-22T04:40:37;3.30;99.90
3406;DHT22;10008;48.682;9.016;2023-11-22T04:43:03;3.40;99.90
3406;DHT22;10008;48.682;9.016;2023-11-22T04:45:28;3.30;99.90
3406;DHT22;10008;48.682;9.016;2023-11-22T04:47:54;3.60;99.90
3406;DHT22;10008;48.682;9.016;2023-11-22T04:50:22;3.40;99.90
3406;DHT22;10008;48.682;9.016;2023-11-22T04:52:50;3.40;99.90
3406;DHT22;10008;48.682;9.016;2023-11-22T04:55:16;3.30;99.90
3406;DHT22;10008;48.682;9.016;2023-11-22T04:57:42;3.40;99.90
3406;DHT22;10008;48.682;9.016;2023-11-22T05:00:08;3.30;99.90
3406;DHT22;10008;48.682;9.016;2023-11-22T05:02:34;3.40;99.90
3406;DHT22;10008;48.682;9.016;2023-11-22T05:05:00;3.40;99.90
3406;DHT22;10008;48.682;9.016;2023-11-22T05:07:25;3.40;99.90
3406;DHT22;10008;48.682;9.016;2023-11-22T05:09:51;3.70;99.90
3406;DHT22;10008;48.682;9.016;2023-11-22T05:12:17;3.30;99.90
3406;DHT22;10008;48.682;9.016;2023-11-22T05:14:43;3.30;99.90
3406;DHT22;10008;48.682;9.016;2023-11-22T05:17:11;3.30;99.90
3406;DHT22;10008;48.682;9.016;2023-11-22T05:19:38;3.30;99.90
3406;DHT22;10008;48.682;9.016;2023-11-22T05:22:04;3.30;99.90
3406;DHT22;10008;48.682;9.016;2023-11-22T05:24:30;3.30;99.90
3406;DHT22;10008;48.682;9.016;2023-11-22T05:26:56;3.30;99.90
3406;DHT22;10008;48.682;9.016;2023-11-22T05:29:21;3.30;99.90
3406;DHT22;10008;48.682;9.016;2023-11-22T05:31:47;3.10;99.90
3406;DHT22;10008;48.682;9.016;2023-11-22T05:34:13;3.50;99.90
3406;DHT22;10008;48.682;9.016;2023-11-22T05:36:39;3.50;99.90
3406;DHT22;10008;48.682;9.016;2023-11-22T05:39:05;3.10;99.90
3406;DHT22;10008;48.682;9.016;2023-11-22T05:41:32;3.20;99.90
3406;DHT22;10008;48.682;9.016;2023-11-22T05:43:58;3.20;99.90
3406;DHT22;10008;48.682;9.016;2023-11-22T05:46:24;3.30;99.90
3406;DHT22;10008;48.682;9.016;2023-11-22T05:48:52;3.60;99.90
3406;DHT22;10008;48.682;9.016;2023-11-22T05:51:18;3.20;99.90
3406;DHT22;10008;48.682;9.016;2023-11-22T05:53:44;3.10;99.90
3406;DHT22;10008;48.682;9.016;2023-11-22T05:56:11;3.00;99.90
3406;DHT22;10008;48.682;9.016;2023-11-22T05:58:37;3.10;99.90
3406;DHT22;10008;48.682;9.016;2023-11-22T06:01:04;3.10;99.90
3406;DHT22;10008;48.682;9.016;2023-11-22T06:03:32;3.10;99.90
3406;DHT22;10008;48.682;9.016;2023-11-22T06:05:57;3.40;99.90
3406;DHT22;10008;48.682;9.016;2023-11-22T06:08:23;3.00;99.90
3406;DHT22;10008;48.682;9.016;2023-11-22T06:10:49;3.10;99.90
3406;DHT22;10008;48.682;9.016;2023-11-22T06:13:15;3.10;99.90
3406;DHT22;10008;48.682;9.016;2023-11-22T06:15:41;2.90;99.90
3406;DHT22;10008;48.682;9.016;2023-11-22T06:18:07;2.90;99.90
3406;DHT22;10008;48.682;9.016;2023-11-22T06:20:32;3.70;99.90
3406;DHT22;10008;48.682;9.016;2023-11-22T06:22:58;2.90;99.90
3406;DHT22;10008;48.682;9.016;2023-11-22T06:25:24;3.50;99.90
3406;DHT22;10008;48.682;9.016;2023-11-22T06:27:50;2.90;99.90
3406;DHT22;10008;48.682;9.016;2023-11-22T06:30:16;3.00;99.90
3406;DHT22;10008;48.682;9.016;2023-11-22T06:32:42;3.00;99.90
3406;DHT22;10008;48.682;9.016;2023-11-22T06:35:09;2.90;99.90
3406;DHT22;10008;48.682;9.016;2023-11-22T06:37:35;2.90;99.90
3406;DHT22;10008;48.682;9.016;2023-11-22T06:40:01;3.00;99.90
3406;DHT22;10008;48.682;9.016;2023-11-22T06:42:27;3.00;99.90
3406;DHT22;10008;48.682;9.016;2023-11-22T06:44:53;2.90;99.90
3406;DHT22;10008;48.682;9.016;2023-11-22T06:47:19;2.90;99.90
3406;DHT22;10008;48.682;9.016;2023-11-22T06:49:45;2.90;99.90
3406;DHT22;10008;48.682;9.016;2023-11-22T06:52:11;2.80;99.90
3406;DHT22;10008;48.682;9.016;2023-11-22T06:54:38;2.90;99.90
3406;DHT22;10008;48.682;9.016;2023-11-22T06:57:04;3.70;99.90
3406;DHT22;10008;48.682;9.016;2023-11-22T06:59:29;3.00;99.90
3406;DHT22;10008;48.682;9.016;2023-11-22T07:01:55;2.90;99.90
3406;DHT22;10008;48.682;9.016;2023-11-22T07:04:24;2.90;99.90
3406;DHT22;10008;48.682;9.016;2023-11-22T07:06:49;3.40;99.90
3406;DHT22;10008;48.682;9.016;2023-11-22T07:09:15;3.20;99.90
3406;DHT22;10008;48.682;9.016;2023-11-22T07:11:41;2.90;99.90
3406;DHT22;10008;48.682;9.016;2023-11-22T07:14:09;2.90;99.90
3406;DHT22;10008;48.682;9.016;2023-11-22T07:16:35;2.90;99.90
3406;DHT22;10008;48.682;9.016;2023-11-22T07:19:03;2.90;99.90
3406;DHT22;10008;48.682;9.016;2023-11-22T07:21:31;3.00;99.90
3406;DHT22;10008;48.682;9.016;2023-11-22T07:23:57;3.40;99.90
3406;DHT22;10008;48.682;9.016;2023-11-22T07:26:24;3.00;99.90
3406;DHT22;10008;48.682;9.016;2023-11-22T07:28:53;3.00;99.90
3406;DHT22;10008;48.682;9.016;2023-11-22T07:31:18;3.00;99.90
3406;DHT22;10008;48.682;9.016;2023-11-22T07:33:45;3.10;99.90
3406;DHT22;10008;48.682;9.016;2023-11-22T07:36:12;2.90;99.90
3406;DHT22;10008;48.682;9.016;2023-11-22T07:38:41;3.70;99.90
3406;DHT22;10008;48.682;9.016;2023-11-22T07:41:08;3.10;99.90
3406;DHT22;10008;48.682;9.016;2023-11-22T07:43:34;3.10;99.90
3406;DHT22;10008;48.682;9.016;2023-11-22T07:46:00;3.00;99.90
3406;DHT22;10008;48.682;9.016;2023-11-22T07:48:26;3.00;99.90
3406;DHT22;10008;48.682;9.016;2023-11-22T07:50:53;3.30;99.90
3406;DHT22;10008;48.682;9.016;2023-11-22T07:53:20;2.90;99.90
3406;DHT22;10008;48.682;9.016;2023-11-22T07:55:45;2.80;99.90
3406;DHT22;10008;48.682;9.016;2023-11-22T07:58:12;2.80;99.90
3406;DHT22;10008;48.682;9.016;2023-11-22T08:00:38;2.80;99.90
3406;DHT22;10008;48.682;9.016;2023-11-22T08:03:03;2.70;99.90
3406;DHT22;10008;48.682;9.016;2023-11-22T08:05:31;2.70;99.90
3406;DHT22;10008;48.682;9.016;2023-11-22T08:08:05;3.20;99.90
3406;DHT22;10008;48.682;9.016;2023-11-22T08:10:34;3.50;99.90
3406;DHT22;10008;48.682;9.016;2023-11-22T08:13:01;2.60;99.90
3406;DHT22;10008;48.682;9.016;2023-11-22T08:15:29;2.70;99.90
3406;DHT22;10008;48.682;9.016;2023-11-22T08:17:55;2.50;99.90
3406;DHT22;10008;48.682;9.016;2023-11-22T08:20:20;2.50;99.90
3406;DHT22;10008;48.682;9.016;2023-11-22T08:22:47;2.60;99.90
3406;DHT22;10008;48.682;9.016;2023-11-22T08:25:14;2.50;99.90
3406;DHT22;10008;48.682;9.016;2023-11-22T08:27:41;2.60;99.90
3406;DHT22;10008;48.682;9.016;2023-11-22T08:30:10;2.80;99.90
3406;DHT22;10008;48.682;9.016;2023-11-22T08:32:44;2.70;99.90
3406;DHT22;10008;48.682;9.016;2023-11-22T08:35:12;2.40;99.90
3406;DHT22;10008;48.682;9.016;2023-11-22T08:37:41;2.20;99.90
3406;DHT22;10008;48.682;9.016;2023-11-22T08:40:10;2.30;99.90
3406;DHT22;10008;48.682;9.016;2023-11-22T08:42:46;2.40;99.90
3406;DHT22;10008;48.682;9.016;2023-11-22T08:45:12;3.10;99.90
3406;DHT22;10008;48.682;9.016;2023-11-22T08:47:40;2.40;99.90
3406;DHT22;10008;48.682;9.016;2023-11-22T08:50:07;2.30;99.90
3406;DHT22;10008;48.682;9.016;2023-11-22T08:52:34;2.30;99.90
3406;DHT22;10008;48.682;9.016;2023-11-22T08:55:02;2.40;99.90
3406;DHT22;10008;48.682;9.016;2023-11-22T08:57:27;2.40;99.90
3406;DHT22;10008;48.682;9.016;2023-11-22T08:59:53;2.40;99.90
3406;DHT22;10008;48.682;9.016;2023-11-22T09:02:19;2.40;99.90
3406;DHT22;10008;48.682;9.016;2023-11-22T09:04:48;2.40;99.90
3406;DHT22;10008;48.682;9.016;2023-11-22T09:07:13;2.30;99.90
3406;DHT22;10008;48.682;9.016;2023-11-22T09:09:43;2.20;99.90
3406;DHT22;10008;48.682;9.016;2023-11-22T09:12:09;2.30;99.90
3406;DHT22;10008;48.682;9.016;2023-11-22T09:14:40;2.20;99.90
3406;DHT22;10008;48.682;9.016;2023-11-22T09:17:09;2.30;99.90
3406;DHT22;10008;48.682;9.016;2023-11-22T09:19:35;2.30;99.90
3406;DHT22;10008;48.682;9.016;2023-11-22T09:22:01;2.30;99.90
3406;DHT22;10008;48.682;9.016;2023-11-22T09:24:27;2.40;99.90
3406;DHT22;10008;48.682;9.016;2023-11-22T09:26:53;2.50;99.90
3406;DHT22;10008;48.682;9.016;2023-11-22T09:29:18;2.40;99.90
3406;DHT22;10008;48.682;9.016;2023-11-22T09:31:44;2.40;99.90
3406;DHT22;10008;48.682;9.016;2023-11-22T09:34:13;2.50;99.90
3406;DHT22;10008;48.682;9.016;2023-11-22T09:36:39;2.60;99.90
3406;DHT22;10008;48.682;9.016;2023-11-22T09:39:05;2.60;99.90
3406;DHT22;10008;48.682;9.016;2023-11-22T09:41:36;2.70;99.90
3406;DHT22;10008;48.682;9.016;2023-11-22T09:44:03;2.70;99.90
3406;DHT22;10008;48.682;9.016;2023-11-22T09:46:30;2.80;99.90
3406;DHT22;10008;48.682;9.016;2023-11-22T09:48:57;2.80;99.90
3406;DHT22;10008;48.682;9.016;2023-11-22T09:51:29;2.90;99.90
3406;DHT22;10008;48.682;9.016;2023-11-22T09:53:59;3.10;99.90
3406;DHT22;10008;48.682;9.016;2023-11-22T09:56:30;2.90;99.90
3406;DHT22;10008;48.682;9.016;2023-11-22T09:58:58;3.00;99.90
3406;DHT22;10008;48.682;9.016;2023-11-22T10:01:27;3.10;99.90
3406;DHT22;10008;48.682;9.016;2023-11-22T10:03:54;3.10;99.90
3406;DHT22;10008;48.682;9.016;2023-11-22T10:06:20;3.00;99.90
3406;DHT22;10008;48.682;9.016;2023-11-22T10:08:46;2.90;99.90
3406;DHT22;10008;48.682;9.016;2023-11-22T10:11:16;3.40;99.90
3406;DHT22;10008;48.682;9.016;2023-11-22T10:13:51;2.90;99.90
3406;DHT22;10008;48.682;9.016;2023-11-22T10:16:18;2.80;99.90
3406;DHT22;10008;48.682;9.016;2023-11-22T10:18:48;2.70;99.90
3406;DHT22;10008;48.682;9.016;2023-11-22T10:21:28;2.80;99.90
3406;DHT22;10008;48.682;9.016;2023-11-22T10:23:57;2.60;99.90
3406;DHT22;10008;48.682;9.016;2023-11-22T10:26:25;2.60;99.90
3406;DHT22;10008;48.682;9.016;2023-11-22T10:28:54;2.70;99.90
3406;DHT22;10008;48.682;9.016;2023-11-22T10:31:21;2.90;99.90
3406;DHT22;10008;48.682;9.016;2023-11-22T10:33:48;2.90;99.90
3406;DHT22;10008;48.682;9.016;2023-11-22T10:36:15;2.80;99.90
3406;DHT22;10008;48.682;9.016;2023-11-22T10:38:41;2.70;99.90
3406;DHT22;10008;48.682;9.016;2023-11-22T10:41:11;2.70;99.90
3406;DHT22;10008;48.682;9.016;2023-11-22T10:43:39;2.80;99.90
3406;DHT22;10008;48.682;9.016;2023-11-22T10:46:08;3.50;99.90
3406;DHT22;10008;48.682;9.016;2023-11-22T10:48:36;3.30;99.90
3406;DHT22;10008;48.682;9.016;2023-11-22T10:51:03;3.00;99.90
3406;DHT22;10008;48.682;9.016;2023-11-22T10:53:35;3.00;99.90
3406;DHT22;10008;48.682;9.016;2023-11-22T10:56:11;3.40;99.90
3406;DHT22;10008;48.682;9.016;2023-11-22T10:58:48;2.90;99.90
3406;DHT22;10008;48.682;9.016;2023-11-22T11:01:18;3.00;99.90
3406;DHT22;10008;48.682;9.016;2023-11-22T11:04:09;2.90;99.90
3406;DHT22;10008;48.682;9.016;2023-11-22T11:06:37;3.00;99.90
3406;DHT22;10008;48.682;9.016;2023-11-22T11:09:06;3.10;99.90
3406;DHT22;10008;48.682;9.016;2023-11-22T11:11:35;3.30;99.90
3406;DHT22;10008;48.682;9.016;2023-11-22T11:14:03;3.20;99.90
3406;DHT22;10008;48.682;9.016;2023-11-22T11:16:32;3.10;99.90
3406;DHT22;10008;48.682;9.016;2023-11-22T11:19:00;3.20;99.90
3406;DHT22;10008;48.682;9.016;2023-11-22T11:21:27;3.10;99.90
3406;DHT22;10008;48.682;9.016;2023-11-22T11:23:55;3.10;99.90
3406;DHT22;10008;48.682;9.016;2023-11-22T11:26:27;3.20;99.90
3406;DHT22;10008;48.682;9.016;2023-11-22T11:28:54;3.30;99.90
3406;DHT22;10008;48.682;9.016;2023-11-22T11:31:23;3.70;99.90
3406;DHT22;10008;48.682;9.016;2023-11-22T11:36:26;3.90;99.90
3406;DHT22;10008;48.682;9.016;2023-11-22T11:38:53;3.40;99.90
3406;DHT22;10008;48.682;9.016;2023-11-22T11:41:28;3.30;99.90
3406;DHT22;10008;48.682;9.016;2023-11-22T11:43:56;3.40;99.90
3406;DHT22;10008;48.682;9.016;2023-11-22T11:46:22;3.60;99.90
3406;DHT22;10008;48.682;9.016;2023-11-22T11:48:49;3.20;99.90
3406;DHT22;10008;48.682;9.016;2023-11-22T11:51:22;4.00;99.90
3406;DHT22;10008;48.682;9.016;2023-11-22T11:53:48;3.50;99.90
3406;DHT22;10008;48.682;9.016;2023-11-22T11:56:15;3.40;99.90
3406;DHT22;10008;48.682;9.016;2023-11-22T11:58:45;3.30;99.90
3406;DHT22;10008;48.682;9.016;2023-11-22T12:01:12;3.90;99.90
3406;DHT22;10008;48.682;9.016;2023-11-22T12:03:38;3.70;99.90
3406;DHT22;10008;48.682;9.016;2023-11-22T12:06:07;3.50;99.90
3406;DHT22;10008;48.682;9.016;2023-11-22T12:08:33;3.50;99.90
3406;DHT22;10008;48.682;9.016;2023-11-22T12:11:04;3.30;99.90
3406;DHT22;10008;48.682;9.016;2023-11-22T12:13:34;3.20;99.90
3406;DHT22;10008;48.682;9.016;2023-11-22T12:16:00;3.30;99.90
3406;DHT22;10008;48.682;9.016;2023-11-22T12:18:28;3.10;99.90
3406;DHT22;10008;48.682;9.016;2023-11-22T12:20:58;3.60;99.90
3406;DHT22;10008;48.682;9.016;2023-11-22T12:23:25;3.00;99.90
3406;DHT22;10008;48.682;9.016;2023-11-22T12:25:59;3.00;99.90
3406;DHT22;10008;48.682;9.016;2023-11-22T12:28:27;3.00;99.90
3406;DHT22;10008;48.682;9.016;2023-11-22T12:30:53;3.10;99.90
3406;DHT22;10008;48.682;9.016;2023-11-22T12:33:19;2.90;99.90
3406;DHT22;10008;48.682;9.016;2023-11-22T12:35:46;2.90;99.90
3406;DHT22;10008;48.682;9.016;2023-11-22T12:38:12;3.00;99.90
3406;DHT22;10008;48.682;9.016;2023-11-22T12:40:42;3.00;99.90
3406;DHT22;10008;48.682;9.016;2023-11-22T12:43:08;3.00;99.90
3406;DHT22;10008;48.682;9.016;2023-11-22T12:45:35;3.10;99.90
3406;DHT22;10008;48.682;9.016;2023-11-22T12:48:25;3.10;99.90
3406;DHT22;10008;48.682;9.016;2023-11-22T12:50:51;3.20;99.90
3406;DHT22;10008;48.682;9.016;2023-11-22T12:53:18;3.20;99.90
3406;DHT22;10008;48.682;9.016;2023-11-22T12:55:49;3.20;99.90
3406;DHT22;10008;48.682;9.016;2023-11-22T12:58:16;3.40;99.90
3406;DHT22;10008;48.682;9.016;2023-11-22T13:00:44;3.40;99.90
3406;DHT22;10008;48.682;9.016;2023-11-22T13:03:10;3.80;99.90
3406;DHT22;10008;48.682;9.016;2023-11-22T13:05:41;3.20;99.90
3406;DHT22;10008;48.682;9.016;2023-11-22T13:08:11;3.10;99.90
3406;DHT22;10008;48.682;9.016;2023-11-22T13:10:49;3.10;99.90
3406;DHT22;10008;48.682;9.016;2023-11-22T13:13:25;3.10;99.90
3406;DHT22;10008;48.682;9.016;2023-11-22T13:15:53;2.90;99.90
3406;DHT22;10008;48.682;9.016;2023-11-22T13:18:19;3.00;99.90
3406;DHT22;10008;48.682;9.016;2023-11-22T13:20:45;2.90;99.90
3406;DHT22;10008;48.682;9.016;2023-11-22T13:23:11;2.80;99.90
3406;DHT22;10008;48.682;9.016;2023-11-22T13:25:39;2.90;99.90
3406;DHT22;10008;48.682;9.016;2023-11-22T13:28:06;2.90;99.90
3406;DHT22;10008;48.682;9.016;2023-11-22T13:30:32;2.90;99.90
3406;DHT22;10008;48.682;9.016;2023-11-22T13:32:58;3.20;99.90
3406;DHT22;10008;48.682;9.016;2023-11-22T13:35:25;3.00;99.90
3406;DHT22;10008;48.682;9.016;2023-11-22T13:37:53;2.90;99.90
3406;DHT22;10008;48.682;9.016;2023-11-22T13:40:19;2.90;99.90
3406;DHT22;10008;48.682;9.016;2023-11-22T13:42:50;3.50;99.90
3406;DHT22;10008;48.682;9.016;2023-11-22T13:45:19;3.00;99.90
3406;DHT22;10008;48.682;9.016;2023-11-22T13:47:47;3.40;99.90
3406;DHT22;10008;48.682;9.016;2023-11-22T13:50:19;3.10;99.90
3406;DHT22;10008;48.682;9.016;2023-11-22T13:52:50;3.10;99.90
3406;DHT22;10008;48.682;9.016;2023-11-22T13:55:18;3.00;99.90
3406;DHT22;10008;48.682;9.016;2023-11-22T13:57:49;3.20;99.90
3406;DHT22;10008;48.682;9.016;2023-11-22T14:00:15;3.20;99.90
3406;DHT22;10008;48.682;9.016;2023-11-22T14:02:49;3.00;99.90
3406;DHT22;10008;48.682;9.016;2023-11-22T14:05:17;3.00;99.90
3406;DHT22;10008;48.682;9.016;2023-11-22T14:07:43;2.90;99.90
3406;DHT22;10008;48.682;9.016;2023-11-22T14:10:10;2.90;99.90
3406;DHT22;10008;48.682;9.016;2023-11-22T14:12:36;3.20;99.90
3406;DHT22;10008;48.682;9.016;2023-11-22T14:15:03;3.00;99.90
3406;DHT22;10008;48.682;9.016;2023-11-22T14:17:30;3.10;99.90
3406;DHT22;10008;48.682;9.016;2023-11-22T14:19:56;2.90;99.90
3406;DHT22;10008;48.682;9.016;2023-11-22T14:22:22;3.00;99.90
3406;DHT22;10008;48.682;9.016;2023-11-22T14:24:49;2.90;99.90
3406;DHT22;10008;48.682;9.016;2023-11-22T14:27:16;2.90;99.90
3406;DHT22;10008;48.682;9.016;2023-11-22T14:29:43;3.00;99.90
3406;DHT22;10008;48.682;9.016;2023-11-22T14:32:10;2.90;99.90
3406;DHT22;10008;48.682;9.016;2023-11-22T14:34:36;3.00;99.90
3406;DHT22;10008;48.682;9.016;2023-11-22T14:37:04;3.60;99.90
3406;DHT22;10008;48.682;9.016;2023-11-22T14:39:31;2.90;99.90
3406;DHT22;10008;48.682;9.016;2023-11-22T14:41:56;3.00;99.90
3406;DHT22;10008;48.682;9.016;2023-11-22T14:44:22;2.90;99.90
3406;DHT22;10008;48.682;9.016;2023-11-22T14:46:48;3.00;99.90
3406;DHT22;10008;48.682;9.016;2023-11-22T14:49:14;3.00;99.90
3406;DHT22;10008;48.682;9.016;2023-11-22T14:51:40;3.10;99.90
3406;DHT22;10008;48.682;9.016;2023-11-22T14:54:06;3.10;99.90
3406;DHT22;10008;48.682;9.016;2023-11-22T14:56:32;3.00;99.90
3406;DHT22;10008;48.682;9.016;2023-11-22T14:58:59;3.10;99.90
3406;DHT22;10008;48.682;9.016;2023-11-22T15:01:25;3.40;99.90
3406;DHT22;10008;48.682;9.016;2023-11-22T15:03:52;3.10;99.90
3406;DHT22;10008;48.682;9.016;2023-11-22T15:06:21;3.70;99.90
3406;DHT22;10008;48.682;9.016;2023-11-22T15:08:47;3.20;99.90
3406;DHT22;10008;48.682;9.016;2023-11-22T15:11:14;3.20;99.90
3406;DHT22;10008;48.682;9.016;2023-11-22T15:13:44;3.30;99.90
3406;DHT22;10008;48.682;9.016;2023-11-22T15:16:10;3.20;99.90
3406;DHT22;10008;48.682;9.016;2023-11-22T15:18:41;3.20;99.90
3406;DHT22;10008;48.682;9.016;2023-11-22T15:21:07;3.20;99.90
3406;DHT22;10008;48.682;9.016;2023-11-22T15:23:33;3.20;99.90
3406;DHT22;10008;48.682;9.016;2023-11-22T15:25:59;3.10;99.90
3406;DHT22;10008;48.682;9.016;2023-11-22T15:28:25;3.50;99.90
3406;DHT22;10008;48.682;9.016;2023-11-22T15:30:52;3.20;99.90
3406;DHT22;10008;48.682;9.016;2023-11-22T15:33:26;3.00;99.90
3406;DHT22;10008;48.682;9.016;2023-11-22T15:35:52;3.00;99.90
3406;DHT22;10008;48.682;9.016;2023-11-22T15:38:19;3.50;99.90
3406;DHT22;10008;48.682;9.016;2023-11-22T15:40:45;3.10;99.90
3406;DHT22;10008;48.682;9.016;2023-11-22T15:43:10;2.90;99.90
3406;DHT22;10008;48.682;9.016;2023-11-22T15:45:37;2.80;99.90
3406;DHT22;10008;48.682;9.016;2023-11-22T15:48:05;2.80;99.90
3406;DHT22;10008;48.682;9.016;2023-11-22T15:50:31;2.90;99.90
3406;DHT22;10008;48.682;9.016;2023-11-22T15:52:58;2.90;99.90
3406;DHT22;10008;48.682;9.016;2023-11-22T15:55:24;2.90;99.90
3406;DHT22;10008;48.682;9.016;2023-11-22T15:57:50;2.90;99.90
3406;DHT22;10008;48.682;9.016;2023-11-22T16:00:16;2.90;99.90
3406;DHT22;10008;48.682;9.016;2023-11-22T16:02:42;2.90;99.90
3406;DHT22;10008;48.682;9.016;2023-11-22T16:05:08;2.90;99.90